WAT5451 LPGR-LPPI

Flight info

Callsign WAT5451
Flight time 0h 19m
Altitude 12000
Route PI
Aircraft HDJT/L-SABDGRWY/H

Departure

Time 2026-04-22 17:54
Airport Graciosa Airport (LPGR)

Arrival

Time 2026-04-22 18:14
Airport Pico Airport (LPPI)
Time Latitude Longitude Altitude Speed Heading
2026-04-22 17:42 39.09140 -28.02796 83 ft 0 kts 341°
2026-04-22 17:42 39.09139 -28.02796 83 ft 0 kts 341°
2026-04-22 17:51 39.09138 -28.02796 83 ft 0 kts 341°
2026-04-22 17:52 39.09161 -28.02812 85 ft 9 kts 298°
2026-04-22 17:52 39.09214 -28.02855 85 ft 11 kts
2026-04-22 17:52 39.09255 -28.02760 90 ft 17 kts 78°
2026-04-22 17:52 39.09285 -28.02580 91 ft 24 kts 78°
2026-04-22 17:53 39.09330 -28.02368 90 ft 17 kts 54°
2026-04-22 17:53 39.09359 -28.02258 91 ft 12 kts 37°
2026-04-22 17:53 39.09356 -28.02216 88 ft 4 kts 212°
2026-04-22 17:53 39.09345 -28.02238 89 ft 3 kts 257°
2026-04-22 17:54 39.09289 -28.02576 90 ft 79 kts 258°
2026-04-22 17:54 39.09109 -28.03528 305 ft 131 kts 262°
2026-04-22 17:54 39.08940 -28.04855 846 ft 166 kts 265°
2026-04-22 17:54 39.08716 -28.06409 1664 ft 191 kts 255°
2026-04-22 17:55 39.08256 -28.07466 2123 ft 219 kts 239°
2026-04-22 17:55 39.06523 -28.09167 3443 ft 257 kts 209°
2026-04-22 17:55 39.04676 -28.09478 4509 ft 283 kts 180°
2026-04-22 17:55 39.02723 -28.08844 5673 ft 294 kts 165°
2026-04-22 17:56 39.00879 -28.07638 6809 ft 303 kts 149°
2026-04-22 17:56 38.99316 -28.05849 8140 ft 295 kts 138°
2026-04-22 17:56 38.97990 -28.03985 9751 ft 271 kts 136°
2026-04-22 17:56 38.96742 -28.02216 10768 ft 273 kts 137°
2026-04-22 17:57 38.95448 -28.00384 11581 ft 279 kts 138°
2026-04-22 17:57 38.94040 -27.98510 11637 ft 303 kts 140°
2026-04-22 17:57 38.92367 -27.96747 11629 ft 319 kts 154°
2026-04-22 17:57 38.90285 -27.95653 11626 ft 327 kts 173°
2026-04-22 17:58 38.88040 -27.95180 11634 ft 327 kts 179°
2026-04-22 17:58 38.85782 -27.94692 11634 ft 332 kts 174°
2026-04-22 17:58 38.83622 -27.93914 11490 ft 317 kts 169°
2026-04-22 17:58 38.81575 -27.93088 11225 ft 303 kts 171°
2026-04-22 17:59 38.79554 -27.92447 10888 ft 296 kts 175°
2026-04-22 17:59 38.77550 -27.91872 10528 ft 294 kts 174°
2026-04-22 17:59 38.75571 -27.91207 10157 ft 293 kts 172°
2026-04-22 17:59 38.73614 -27.90529 9787 ft 290 kts 173°
2026-04-22 18:00 38.72318 -27.90112 9543 ft 289 kts 174°
2026-04-22 18:00 38.69714 -27.89283 9024 ft 287 kts 173°
2026-04-22 18:00 38.67781 -27.88640 8651 ft 286 kts 173°
2026-04-22 18:00 38.65859 -27.88012 8293 ft 284 kts 174°
2026-04-22 18:01 38.63944 -27.87395 7927 ft 284 kts 173°
2026-04-22 18:01 38.62029 -27.86766 7563 ft 284 kts 173°
2026-04-22 18:01 38.60120 -27.86143 7218 ft 282 kts 173°
2026-04-22 18:01 38.58208 -27.85595 6819 ft 278 kts 182°
2026-04-22 18:02 38.56352 -27.85848 6467 ft 271 kts 201°
2026-04-22 18:02 38.54663 -27.86678 6238 ft 249 kts 221°
2026-04-22 18:02 38.53565 -27.88253 5853 ft 232 kts 249°
2026-04-22 18:02 38.53292 -27.90218 5444 ft 222 kts 278°
2026-04-22 18:03 38.53706 -27.92037 5047 ft 217 kts 290°
2026-04-22 18:03 38.54243 -27.93768 4683 ft 201 kts 291°
2026-04-22 18:03 38.54895 -27.95255 4635 ft 190 kts 307°
2026-04-22 18:03 38.55808 -27.96456 4636 ft 191 kts 311°
2026-04-22 18:04 38.56765 -27.97631 4642 ft 191 kts 312°
2026-04-22 18:04 38.57726 -27.98796 4646 ft 190 kts 312°
2026-04-22 18:04 38.58632 -28.00013 4640 ft 188 kts 300°
2026-04-22 18:04 38.59007 -28.01596 4649 ft 188 kts 282°
2026-04-22 18:05 38.59262 -28.03226 4645 ft 187 kts 281°
2026-04-22 18:05 38.59327 -28.04899 4647 ft 190 kts 271°
2026-04-22 18:05 38.59217 -28.06582 4648 ft 190 kts 269°
2026-04-22 18:05 38.59064 -28.08267 4654 ft 191 kts 268°
2026-04-22 18:06 38.58879 -28.09978 4649 ft 204 kts 267°
2026-04-22 18:06 38.58703 -28.11856 4655 ft 218 kts 267°
2026-04-22 18:06 38.58493 -28.13790 4635 ft 221 kts 266°
2026-04-22 18:06 38.58306 -28.15675 4391 ft 202 kts 268°
2026-04-22 18:07 38.58200 -28.16807 4231 ft 185 kts 268°
2026-04-22 18:07 38.57986 -28.18805 3905 ft 154 kts 269°
2026-04-22 18:07 38.57866 -28.20059 3707 ft 131 kts 269°
2026-04-22 18:07 38.57755 -28.21133 3544 ft 120 kts 270°
2026-04-22 18:08 38.57691 -28.21828 3442 ft 117 kts 269°
2026-04-22 18:08 38.57553 -28.23174 3241 ft 114 kts 269°
2026-04-22 18:08 38.57452 -28.24173 3090 ft 114 kts 270°
2026-04-22 18:08 38.57351 -28.25178 2937 ft 114 kts 270°
2026-04-22 18:09 38.57283 -28.25858 2832 ft 114 kts 270°
2026-04-22 18:09 38.57183 -28.26855 2674 ft 114 kts 270°
2026-04-22 18:09 38.57078 -28.27845 2523 ft 111 kts 270°
2026-04-22 18:09 38.56979 -28.28827 2367 ft 113 kts 270°
2026-04-22 18:10 38.56883 -28.29817 2216 ft 113 kts 270°
2026-04-22 18:10 38.56785 -28.30803 2061 ft 114 kts 269°
2026-04-22 18:10 38.56679 -28.31794 1918 ft 113 kts 268°
2026-04-22 18:10 38.56577 -28.32815 1762 ft 119 kts 269°
2026-04-22 18:11 38.56470 -28.33871 1602 ft 118 kts 269°
2026-04-22 18:11 38.56370 -28.34814 1447 ft 101 kts 270°
2026-04-22 18:11 38.56299 -28.35678 1283 ft 97 kts 270°
2026-04-22 18:11 38.56239 -28.36504 1146 ft 91 kts 269°
2026-04-22 18:12 38.56148 -28.37312 965 ft 93 kts 267°
2026-04-22 18:12 38.56042 -28.38127 848 ft 94 kts 268°
2026-04-22 18:12 38.55944 -28.38985 715 ft 100 kts 269°
2026-04-22 18:12 38.55858 -28.39857 644 ft 99 kts 269°
2026-04-22 18:13 38.55762 -28.40714 528 ft 96 kts 270°
2026-04-22 18:13 38.55690 -28.41548 390 ft 96 kts 271°
2026-04-22 18:13 38.55605 -28.42394 285 ft 90 kts 270°
2026-04-22 18:13 38.55532 -28.43157 147 ft 85 kts 270°
2026-04-22 18:14 38.55460 -28.43840 112 ft 65 kts 268°
2026-04-22 18:14 38.55421 -28.44258 109 ft 20 kts 267°
2026-04-22 18:14 38.55374 -28.44319 109 ft 9 kts 135°
2026-04-22 18:14 38.55325 -28.44274 109 ft 8 kts 177°
2026-04-22 18:15 38.55280 -28.44267 109 ft 5 kts 144°
2026-04-22 18:15 38.55304 -28.44243 109 ft 8 kts
2026-04-22 18:15 38.55318 -28.44203 109 ft 8 kts 82°
2026-04-22 18:15 38.55328 -28.44118 109 ft 9 kts 86°
2026-04-22 18:16 38.55283 -28.44078 110 ft 10 kts 174°
2026-04-22 18:16 38.55271 -28.44097 110 ft 2 kts 324°
2026-04-22 18:16 38.55280 -28.44112 110 ft 2 kts 296°
2026-04-22 18:16 38.55281 -28.44115 109 ft 0 kts 296°
2026-04-22 18:17 38.55281 -28.44114 109 ft 0 kts 296°